Huvudsida
METAR-TAF:

METAR-TAF

Flygplatser :

Capo Bellavista

Tortolì, Italien

latitud: 39-56N, longitud: 009-43E, höjd: 138 m

Aktuellt väderrapport

Denna rapport gjordes för 55 minuter sedan, klockan 22:55 UTC
Vind 32 kt från nord/nordost
Temperatur 14°C
Fuktighet 94%
Tryck 1003 hPa
Sikt: 5000 m
Spridda moln på en höjd av 1000 ft
Mulet på en höjd av 3000 ft
lätt regn, fuktdis

METAR: LIEB 262255Z 02032KT 5000 -RA BR SCT010 OVC030 14/13 Q1003 RMK OVC QUK / QUL / VIS MAR 5 KM MON INVIS VIS MIN 5000

Tid: 01:50 (23:50 UTC)


TAF: saknas

Aktuella väderrapporter och prognoser från 4000 flygplatser (METAR- och TAF-rapporter).

De tillgängliga stationerna syns som gula och röda prickar på kartan.

För musen över prickarna för att se namnen på stationerna.

Klicka sedan för att få väderrapporter och prognoser.

För att ändra kartan: Klicka på de gröna knapparna med ett svart kors på för att zooma in; den gröna knappen med ett streck på för att zooma ut; eller på de gröna pilarna för angränsande kartor.


METAR-TAF: